Time;durP1;ratioP1;P1;durP2;ratioP2;P2;SDS_P1;SDS_P2;PMS_P1;PMS_P2;Temp;Humidity;BMP_temperature;BMP_pressure;BME280_temperature;BME280_humidity;BME280_pressure;Samples;Min_cycle;Max_cycle;Signal;HPM_P1;HPM_P2
2021/12/04 00:01:55;;;;;;;15.82;12.13;;;;;;;3.63;100.00;99946.66;6248297;22;20254;-62
2021/12/04 00:04:25;;;;;;;16.73;12.30;;;;;;;3.60;100.00;99943.22;6248716;22;20008;-63
2021/12/04 00:06:50;;;;;;;15.23;11.20;;;;;;;3.64;100.00;99934.56;6248222;22;20012;-62
2021/12/04 00:09:18;;;;;;;13.85;11.73;;;;;;;3.61;100.00;99938.03;6248226;22;20304;-62
2021/12/04 00:11:52;;;;;;;14.52;11.57;;;;;;;3.60;100.00;99925.97;6247775;22;20008;-62
2021/12/04 00:14:19;;;;;;;13.95;11.07;;;;;;;3.60;100.00;99920.78;6248193;22;20004;-62
2021/12/04 00:16:44;;;;;;;15.73;11.07;;;;;;;3.62;100.00;99903.53;6248458;22;20008;-62
2021/12/04 00:19:09;;;;;;;14.57;10.32;;;;;;;3.65;100.00;99889.72;6247868;22;20075;-62
2021/12/04 00:21:35;;;;;;;11.50;9.85;;;;;;;3.64;100.00;99891.44;6248105;23;20115;-61
2021/12/04 00:24:00;;;;;;;12.93;10.05;;;;;;;3.69;100.00;99879.38;6247797;23;20356;-62
2021/12/04 00:26:25;;;;;;;14.73;10.43;;;;;;;3.55;100.00;99873.34;6248416;23;20008;-62
2021/12/04 00:28:50;;;;;;;13.90;10.73;;;;;;;3.62;100.00;99882.84;6248020;23;20012;-62
2021/12/04 00:31:16;;;;;;;15.27;11.77;;;;;;;3.65;100.00;99890.59;6248226;23;20024;-62
2021/12/04 00:33:44;;;;;;;15.38;11.82;;;;;;;3.59;100.00;99882.00;6248072;22;20075;-62
2021/12/04 00:36:23;;;;;;;18.58;11.82;;;;;;;3.65;100.00;99885.41;6247900;22;20008;-62
2021/12/04 00:49:45;;;;;;;16.02;11.60;;;;;;;3.72;100.00;99870.75;6247836;23;20084;-62
2021/12/04 00:52:10;;;;;;;14.77;11.55;;;;;;;3.67;100.00;99863.00;6247855;23;20046;-62
2021/12/04 00:54:37;;;;;;;15.85;12.38;;;;;;;3.66;100.00;99874.19;6248368;23;20046;-62
2021/12/04 00:57:02;;;;;;;15.57;12.30;;;;;;;3.69;100.00;99871.63;6248330;22;20010;-62
2021/12/04 00:59:28;;;;;;;15.05;11.65;;;;;;;3.68;100.00;99856.97;6247770;23;20441;-62
2021/12/04 01:01:53;;;;;;;17.38;11.98;;;;;;;3.74;100.00;99876.78;6247738;22;20305;-62
2021/12/04 01:04:22;;;;;;;14.73;12.23;;;;;;;3.71;100.00;99871.63;6247811;23;20250;-62
2021/12/04 01:06:48;;;;;;;15.13;12.40;;;;;;;3.66;100.00;99866.44;6248316;22;20031;-62
2021/12/04 01:09:16;;;;;;;14.95;12.00;;;;;;;3.71;100.00;99877.66;6251270;22;20004;-62
2021/12/04 01:11:42;;;;;;;17.13;12.75;;;;;;;3.72;100.00;99879.38;6251248;22;20008;-62
2021/12/04 01:14:10;;;;;;;15.98;12.57;;;;;;;3.69;100.00;99874.19;6250753;22;20297;-63
2021/12/04 01:16:35;;;;;;;14.38;11.90;;;;;;;3.71;100.00;99877.66;6251613;22;20004;-62
2021/12/04 01:19:00;;;;;;;13.70;11.52;;;;;;;3.71;100.00;99882.81;6250922;23;20508;-62
2021/12/04 01:21:25;;;;;;;13.02;11.32;;;;;;;3.75;100.00;99881.09;6251147;23;20008;-62
2021/12/04 01:23:51;;;;;;;12.68;11.25;;;;;;;3.71;100.00;99875.06;6251205;22;20278;-62
2021/12/04 01:26:16;;;;;;;14.88;11.32;;;;;;;3.76;100.00;99872.47;6251420;23;20069;-62
2021/12/04 01:28:41;;;;;;;12.73;10.93;;;;;;;3.76;100.00;99878.53;6250664;23;20011;-62
2021/12/04 01:31:07;;;;;;;14.60;10.27;;;;;;;3.76;100.00;99873.34;6251089;22;20004;-62
2021/12/04 01:33:32;;;;;;;13.13;11.05;;;;;;;3.75;100.00;99874.22;6251250;22;20076;-62
2021/12/04 01:35:58;;;;;;;13.93;10.63;;;;;;;3.76;100.00;99860.41;6251276;22;20000;-62
2021/12/04 01:38:23;;;;;;;12.68;10.93;;;;;;;3.75;100.00;99858.69;6251422;22;20027;-62
2021/12/04 01:40:49;;;;;;;13.30;10.95;;;;;;;3.77;100.00;99853.50;6251305;22;20000;-62
2021/12/04 01:43:14;;;;;;;12.25;10.32;;;;;;;3.77;100.00;99862.13;6251025;22;20015;-62
2021/12/04 01:45:39;;;;;;;13.98;10.73;;;;;;;3.75;100.00;99866.44;6250985;22;20389;-62
2021/12/04 01:48:05;;;;;;;12.10;9.88;;;;;;;3.78;100.00;99871.63;6251193;22;20085;-62
2021/12/04 01:50:32;;;;;;;14.15;10.05;;;;;;;3.83;100.00;99862.09;6251001;22;20054;-62
2021/12/04 01:52:59;;;;;;;12.73;9.93;;;;;;;3.82;100.00;99855.19;6251147;22;20011;-62
2021/12/04 01:55:30;;;;;;;13.27;10.68;;;;;;;3.81;100.00;99860.38;6250648;22;20026;-62
2021/12/04 01:57:57;;;;;;;12.52;10.65;;;;;;;3.80;100.00;99851.78;6250847;22;20004;-62
2021/12/04 02:00:22;;;;;;;12.18;10.15;;;;;;;3.79;100.00;99850.06;6251050;22;20091;-62
2021/12/04 02:02:48;;;;;;;12.02;10.40;;;;;;;3.78;100.00;99858.69;6250592;23;20004;-62
2021/12/04 02:05:13;;;;;;;13.30;10.88;;;;;;;3.82;100.00;99855.19;6251002;22;20004;-62
2021/12/04 02:07:39;;;;;;;13.32;9.88;;;;;;;3.79;100.00;99850.06;6251044;22;20011;-62
2021/12/04 02:10:06;;;;;;;12.32;10.65;;;;;;;3.77;100.00;99849.19;6251006;22;20008;-62
2021/12/04 02:12:31;;;;;;;14.50;10.43;;;;;;;3.81;100.00;99844.84;6250749;22;20271;-62
2021/12/04 02:14:57;;;;;;;14.82;10.73;;;;;;;3.80;100.00;99832.81;6250559;22;20011;-62
2021/12/04 02:17:23;;;;;;;14.10;10.55;;;;;;;3.79;100.00;99825.91;6251419;22;20012;-62
2021/12/04 02:19:48;;;;;;;13.32;10.25;;;;;;;3.88;100.00;99812.06;6249156;22;20099;-62
2021/12/04 02:22:14;;;;;;;12.20;9.35;;;;;;;3.83;100.00;99812.06;6249220;22;20004;-62
2021/12/04 02:24:39;;;;;;;12.45;10.05;;;;;;;3.80;100.00;99806.94;6249362;22;20011;-61
2021/12/04 02:27:05;;;;;;;14.15;10.35;;;;;;;3.81;100.00;99799.13;6249188;23;20402;-62
2021/12/04 02:29:30;;;;;;;13.18;10.70;;;;;;;3.82;100.00;99795.69;6249561;22;20008;-62
2021/12/04 02:31:58;;;;;;;14.82;11.25;;;;;;;3.79;100.00;99798.31;6249849;22;20054;-62
2021/12/04 02:34:27;;;;;;;16.92;10.60;;;;;;;3.84;100.00;99791.38;6249399;22;20004;-62
2021/12/04 02:36:53;;;;;;;13.18;10.65;;;;;;;3.80;100.00;99784.50;6249171;22;20073;-62
2021/12/04 02:39:30;;;;;;;16.95;10.68;;;;;;;3.84;100.00;99786.19;6248637;22;20395;-62
2021/12/04 02:41:56;;;;;;;13.82;9.90;;;;;;;3.80;100.00;99781.91;6249081;22;20015;-62
2021/12/04 02:44:24;;;;;;;15.60;11.52;;;;;;;3.83;100.00;99779.28;6249607;22;20004;-62
2021/12/04 02:46:49;;;;;;;15.40;11.43;;;;;;;3.79;100.00;99779.34;6249388;22;20011;-62
2021/12/04 02:49:15;;;;;;;15.20;10.88;;;;;;;3.78;100.00;99777.59;6248977;22;20008;-62
2021/12/04 02:51:41;;;;;;;16.92;11.52;;;;;;;3.75;100.00;99772.44;6249145;22;20058;-62
2021/12/04 02:54:09;;;;;;;14.63;11.32;;;;;;;3.80;100.00;99779.34;6249089;22;20069;-62
2021/12/04 02:56:35;;;;;;;17.02;11.40;;;;;;;3.78;100.00;99775.88;6249030;22;20000;-62
2021/12/04 02:59:02;;;;;;;17.00;11.52;;;;;;;3.82;100.00;99787.06;6249320;23;20071;-62
2021/12/04 03:01:28;;;;;;;16.27;11.50;;;;;;;3.77;100.00;99770.72;6248875;22;20011;-62
2021/12/04 03:04:11;;;;;;;14.63;10.65;;;;;;;3.89;100.00;99778.41;6248611;22;20313;-62
2021/12/04 03:06:39;;;;;;;14.32;10.35;;;;;;;3.82;100.00;99780.16;6248771;22;20352;-63
2021/12/04 03:09:05;;;;;;;14.00;10.73;;;;;;;3.81;100.00;99773.25;6249324;22;20008;-62
2021/12/04 03:11:30;;;;;;;12.32;10.07;;;;;;;3.82;100.00;99764.63;6249055;22;20008;-62
2021/12/04 03:13:56;;;;;;;11.80;9.82;;;;;;;3.77;100.00;99761.22;6248478;22;20367;-62
2021/12/04 03:16:21;;;;;;;13.57;10.10;;;;;;;3.77;100.00;99761.22;6249006;23;20008;-62
2021/12/04 03:18:46;;;;;;;12.93;10.25;;;;;;;3.80;100.00;99756.03;6248485;22;20310;-62
2021/12/04 03:21:11;;;;;;;14.20;9.70;;;;;;;3.80;100.00;99750.00;6248393;23;20007;-62
2021/12/04 03:23:51;;;;;;;11.20;9.25;;;;;;;3.79;100.00;99761.22;6248767;23;20411;-62
2021/12/04 03:26:16;;;;;;;11.95;9.30;;;;;;;3.77;100.00;99753.47;6248748;22;20015;-63
2021/12/04 03:28:41;;;;;;;10.95;8.25;;;;;;;3.79;100.00;99756.03;6249084;22;20004;-62
2021/12/04 03:31:13;;;;;;;10.70;8.80;;;;;;;3.82;100.00;99746.53;6248117;23;20004;-62
2021/12/04 03:41:50;;;;;;;8.93;7.35;;;;;;;3.81;100.00;99728.41;6248464;23;20023;-63
2021/12/04 03:44:15;;;;;;;8.10;6.95;;;;;;;3.81;100.00;99734.44;6248082;23;20004;-63
2021/12/04 03:46:41;;;;;;;7.70;6.63;;;;;;;3.80;100.00;99726.72;6248507;23;20030;-62
2021/12/04 03:49:06;;;;;;;7.10;6.40;;;;;;;3.77;100.00;99729.31;6248613;22;20000;-62
2021/12/04 03:51:31;;;;;;;7.43;6.18;;;;;;;3.80;100.00;99721.53;6248421;23;20019;-62
2021/12/04 03:53:56;;;;;;;9.52;6.57;;;;;;;3.82;100.00;99728.41;6248365;23;20040;-62
2021/12/04 03:56:23;;;;;;;7.50;6.10;;;;;;;3.83;100.00;99727.53;6248584;22;20390;-63
2021/12/04 03:58:49;;;;;;;8.13;5.68;;;;;;;3.84;100.00;99723.22;6248348;22;20073;-63
2021/12/04 04:01:14;;;;;;;6.95;5.90;;;;;;;3.86;100.00;99716.31;6247929;22;20004;-63
2021/12/04 04:03:39;;;;;;;6.97;5.75;;;;;;;3.83;100.00;99721.50;6247893;22;20015;-62
2021/12/04 04:06:05;;;;;;;7.13;5.70;;;;;;;3.81;100.00;99723.22;6248388;23;20000;-63
2021/12/04 04:08:31;;;;;;;6.13;5.32;;;;;;;3.83;100.00;99724.09;6248758;23;20011;-62
2021/12/04 04:10:56;;;;;;;6.47;5.72;;;;;;;3.82;100.00;99722.38;6248414;22;20039;-63
2021/12/04 04:13:21;;;;;;;7.35;5.70;;;;;;;3.81;100.00;99713.75;6247882;22;20004;-63
2021/12/04 04:15:47;;;;;;;6.43;5.07;;;;;;;3.87;100.00;99705.09;6247754;22;20004;-63
2021/12/04 04:18:12;;;;;;;6.97;5.60;;;;;;;3.81;100.00;99705.97;6247929;22;20079;-62
2021/12/04 04:20:38;;;;;;;6.38;5.60;;;;;;;3.82;100.00;99705.13;6248192;22;20015;-62
2021/12/04 04:23:03;;;;;;;6.22;5.63;;;;;;;3.85;100.00;99701.66;6248563;23;20031;-62
2021/12/04 04:25:28;;;;;;;5.53;5.03;;;;;;;3.78;100.00;99690.50;6248092;22;20366;-63
2021/12/04 04:27:54;;;;;;;6.07;5.43;;;;;;;3.85;100.00;99701.66;6248184;22;20004;-64
2021/12/04 04:30:20;;;;;;;6.07;5.10;;;;;;;3.82;100.00;99701.66;6248025;22;20016;-63
2021/12/04 04:32:47;;;;;;;5.97;5.05;;;;;;;3.82;100.00;99697.34;6248256;22;20004;-62
2021/12/04 04:35:15;;;;;;;6.90;5.50;;;;;;;3.86;100.00;99698.22;6248621;22;20286;-62
2021/12/04 05:12:35;;;;;;;4.75;4.20;;;;;;;3.77;100.00;99662.03;6248039;23;20375;-62
2021/12/04 05:15:01;;;;;;;5.35;4.38;;;;;;;3.90;100.00;99678.34;6247858;22;20007;-62
2021/12/04 05:17:41;;;;;;;6.22;4.20;;;;;;;3.87;100.00;99662.84;6247892;22;20008;-62
2021/12/04 05:20:10;;;;;;;5.75;4.82;;;;;;;3.85;100.00;99658.53;6247888;22;20004;-62
2021/12/04 05:22:36;;;;;;;6.22;4.25;;;;;;;3.86;100.00;99651.63;6247827;22;20004;-62
2021/12/04 05:25:02;;;;;;;4.78;4.20;;;;;;;3.87;100.00;99663.69;6247630;23;20070;-62
2021/12/04 05:27:28;;;;;;;5.43;4.00;;;;;;;3.88;100.00;99654.22;6247953;22;20008;-63
2021/12/04 05:29:53;;;;;;;4.90;4.38;;;;;;;3.89;100.00;99666.28;6247712;22;20382;-62
2021/12/04 05:32:18;;;;;;;4.28;3.88;;;;;;;3.88;100.00;99664.56;6247559;22;20007;-62
2021/12/04 05:34:44;;;;;;;5.35;4.15;;;;;;;3.83;100.00;99654.22;6247752;22;20014;-62
2021/12/04 05:37:09;;;;;;;5.75;4.40;;;;;;;3.85;100.00;99655.09;6247163;23;20012;-62
2021/12/04 05:39:35;;;;;;;5.97;4.30;;;;;;;3.90;100.00;99661.09;6247203;22;20035;-63
2021/12/04 05:42:01;;;;;;;4.93;4.03;;;;;;;3.93;100.00;99657.63;6247740;22;20008;-63
2021/12/04 05:44:27;;;;;;;4.72;4.20;;;;;;;3.83;100.00;99644.75;6247874;22;20027;-63
2021/12/04 05:47:58;;;;;;;6.72;4.22;;;;;;;3.96;100.00;99674.03;6247645;22;20004;-62
2021/12/04 05:55:14;;;;;;;5.00;4.03;;;;;;;3.92;100.00;99645.56;6248436;23;20027;-62
2021/12/04 05:57:40;;;;;;;5.63;4.32;;;;;;;3.92;100.00;99641.25;6250043;22;20000;-62
2021/12/04 06:00:15;;;;;;;5.00;4.32;;;;;;;3.95;100.00;99649.00;6249204;22;20385;-62
2021/12/04 06:02:41;;;;;;;6.10;4.15;;;;;;;3.98;100.00;99650.72;6249543;22;20056;-62
2021/12/04 06:05:08;;;;;;;4.97;4.22;;;;;;;3.97;100.00;99655.03;6249277;22;20004;-62
2021/12/04 06:07:33;;;;;;;6.63;4.60;;;;;;;3.98;100.00;99648.13;6249735;22;20019;-63
2021/12/04 06:09:59;;;;;;;6.05;4.63;;;;;;;3.96;100.00;99637.78;6249476;23;20007;-62
2021/12/04 06:12:24;;;;;;;6.53;4.55;;;;;;;3.96;100.00;99642.97;6249362;22;20004;-63
2021/12/04 06:14:49;;;;;;;6.63;4.40;;;;;;;3.99;100.00;99642.06;6249388;23;20449;-63
2021/12/04 06:17:18;;;;;;;5.78;3.88;;;;;;;3.97;100.00;99630.88;6249685;23;20028;-62
2021/12/04 06:22:37;;;;;;;5.15;4.43;;;;;;;3.96;100.00;99631.75;6249076;23;20432;-64
2021/12/04 06:25:25;;;;;;;5.80;4.32;;;;;;;3.97;100.00;99628.28;6249125;22;20000;-62
2021/12/04 06:27:51;;;;;;;6.57;4.28;;;;;;;4.03;100.00;99639.44;6249302;22;20095;-62
2021/12/04 06:30:18;;;;;;;5.45;4.57;;;;;;;4.02;100.00;99627.38;6248913;22;20321;-62
2021/12/04 06:32:47;;;;;;;5.20;4.20;;;;;;;3.97;100.00;99625.72;6248973;22;20421;-62
2021/12/04 06:35:14;;;;;;;5.78;4.30;;;;;;;3.97;100.00;99646.41;6249214;22;20004;-64
2021/12/04 06:37:40;;;;;;;4.95;4.38;;;;;;;3.95;100.00;99630.03;6249195;22;20015;-63
2021/12/04 06:40:07;;;;;;;6.13;4.60;;;;;;;4.00;100.00;99641.19;6249801;22;20007;-62
2021/12/04 06:42:33;;;;;;;5.70;4.57;;;;;;;3.96;100.00;99629.16;6249108;22;20004;-62
2021/12/04 06:44:58;;;;;;;6.00;4.72;;;;;;;3.99;100.00;99632.56;6249192;22;20399;-62
2021/12/04 06:47:24;;;;;;;6.20;4.55;;;;;;;4.04;100.00;99648.94;6249491;23;20297;-62
2021/12/04 06:49:52;;;;;;;6.25;4.35;;;;;;;4.00;100.00;99638.59;6249025;22;20008;-62
2021/12/04 06:52:22;;;;;;;6.53;4.80;;;;;;;4.01;100.00;99642.91;6249148;22;20263;-62
2021/12/04 06:54:55;;;;;;;6.45;4.82;;;;;;;4.02;100.00;99652.41;6248401;22;20399;-63
2021/12/04 06:57:22;;;;;;;9.90;5.38;;;;;;;4.02;100.00;99645.50;6249409;22;20079;-63
2021/12/04 06:59:48;;;;;;;8.05;5.40;;;;;;;4.02;100.00;99655.84;6249015;22;20004;-62
2021/12/04 07:02:14;;;;;;;6.75;5.00;;;;;;;4.05;100.00;99649.78;6248696;22;20015;-61
2021/12/04 07:04:40;;;;;;;7.07;5.15;;;;;;;4.04;100.00;99654.09;6248706;22;20012;-61
2021/12/04 07:07:06;;;;;;;9.43;5.70;;;;;;;4.02;100.00;99636.88;6248676;22;20004;-61
2021/12/04 07:09:32;;;;;;;6.38;5.07;;;;;;;4.04;100.00;99645.47;6248966;22;20023;-61
2021/12/04 07:11:59;;;;;;;8.52;5.28;;;;;;;4.06;100.00;99642.03;6248973;22;20004;-61
2021/12/04 07:14:26;;;;;;;7.95;4.70;;;;;;;4.09;100.00;99647.19;6248941;22;20004;-61
2021/12/04 07:16:52;;;;;;;8.88;5.60;;;;;;;4.06;100.00;99643.75;6248830;22;20000;-61
2021/12/04 07:19:17;;;;;;;7.97;5.78;;;;;;;4.11;100.00;99647.19;6248744;22;20008;-61
2021/12/04 07:21:44;;;;;;;7.60;5.80;;;;;;;4.11;100.00;99648.03;6248857;22;20004;-61
2021/12/04 07:24:10;;;;;;;7.88;5.28;;;;;;;4.11;100.00;99650.63;6248808;22;20008;-60
2021/12/04 07:26:35;;;;;;;7.45;5.40;;;;;;;4.12;100.00;99638.53;6248708;22;20008;-61
2021/12/04 07:29:01;;;;;;;9.77;5.53;;;;;;;4.10;100.00;99638.56;6248687;22;20004;-61
2021/12/04 07:31:26;;;;;;;8.23;5.57;;;;;;;4.12;100.00;99638.53;6249388;22;20011;-61
2021/12/04 07:33:52;;;;;;;7.70;5.50;;;;;;;4.10;100.00;99637.69;6248783;23;20066;-61
2021/12/04 07:36:17;;;;;;;8.15;5.22;;;;;;;4.11;100.00;99634.22;6248118;23;20448;-61
2021/12/04 07:38:42;;;;;;;6.68;5.22;;;;;;;4.12;100.00;99641.13;6248707;23;20016;-61
2021/12/04 07:41:08;;;;;;;8.02;5.82;;;;;;;4.10;100.00;99632.50;6248509;23;20011;-61
2021/12/04 07:43:34;;;;;;;6.75;5.30;;;;;;;4.13;100.00;99637.69;6248435;22;20358;-61
2021/12/04 07:45:59;;;;;;;8.73;5.20;;;;;;;4.11;100.00;99621.28;6248432;22;20004;-61
2021/12/04 07:48:25;;;;;;;7.38;5.03;;;;;;;4.12;100.00;99616.09;6247991;22;20004;-61
2021/12/04 07:50:50;;;;;;;8.65;5.13;;;;;;;4.16;100.00;99629.88;6249028;22;20097;-61
2021/12/04 07:53:16;;;;;;;8.15;4.85;;;;;;;4.15;100.00;99623.00;6248725;22;20041;-61
2021/12/04 07:55:41;;;;;;;7.43;5.30;;;;;;;4.20;100.00;99628.97;6247980;22;20004;-62
2021/12/04 07:58:06;;;;;;;6.72;4.72;;;;;;;4.21;100.00;99628.09;6248370;23;20008;-61
2021/12/04 08:00:32;;;;;;;7.55;5.40;;;;;;;4.19;100.00;99617.75;6248126;22;20027;-61
2021/12/04 08:02:57;;;;;;;8.65;5.35;;;;;;;4.19;100.00;99614.31;6248180;23;20004;-62
2021/12/04 08:05:23;;;;;;;9.95;5.30;;;;;;;4.23;100.00;99618.59;6247897;22;20470;-62
2021/12/04 08:07:50;;;;;;;9.13;5.47;;;;;;;4.20;100.00;99611.72;6248310;22;20012;-61
2021/12/04 08:10:18;;;;;;;8.70;5.38;;;;;;;4.20;100.00;99610.84;6248465;22;20069;-62
2021/12/04 08:12:43;;;;;;;8.18;5.40;;;;;;;4.23;100.00;99616.00;6248418;22;20008;-61
2021/12/04 08:15:11;;;;;;;7.80;5.60;;;;;;;4.26;100.00;99617.72;6248359;22;20012;-61
2021/12/04 08:17:37;;;;;;;7.68;5.68;;;;;;;4.26;100.00;99604.78;6247622;22;20018;-62
2021/12/04 08:20:05;;;;;;;8.00;5.93;;;;;;;4.26;100.00;99592.69;6248452;22;20050;-61
2021/12/04 08:22:31;;;;;;;7.35;5.65;;;;;;;4.28;100.00;99590.94;6248172;22;20012;-61
2021/12/04 08:24:56;;;;;;;7.85;5.82;;;;;;;4.34;100.00;99600.38;6248247;22;20008;-61
2021/12/04 08:27:21;;;;;;;7.53;5.28;;;;;;;4.31;100.00;99585.75;6248195;23;20036;-62
2021/12/04 08:29:46;;;;;;;7.15;5.72;;;;;;;4.37;100.00;99587.41;6247755;22;20420;-61
2021/12/04 08:32:12;;;;;;;8.65;5.45;;;;;;;4.36;100.00;99588.28;6247512;22;20004;-61
2021/12/04 08:34:38;;;;;;;8.35;5.43;;;;;;;4.37;100.00;99575.31;6247915;23;20102;-62
2021/12/04 08:37:05;;;;;;;7.28;5.45;;;;;;;4.36;100.00;99581.38;6248262;22;20008;-61
2021/12/04 08:39:31;;;;;;;7.82;5.43;;;;;;;4.42;100.00;99583.06;6248217;22;20417;-61
2021/12/04 08:41:58;;;;;;;8.20;5.20;;;;;;;4.39;100.00;99580.50;6247304;22;20007;-61
2021/12/04 08:44:23;;;;;;;7.90;5.57;;;;;;;4.35;100.00;99558.94;6247349;22;20008;-61
2021/12/04 08:46:48;;;;;;;7.72;5.28;;;;;;;4.39;100.00;99567.53;6247674;22;20349;-61
2021/12/04 08:49:14;;;;;;;8.07;6.03;;;;;;;4.40;100.00;99567.53;6248072;23;20004;-61
2021/12/04 08:51:42;;;;;;;8.57;5.57;;;;;;;4.35;100.00;99558.06;6247289;22;20000;-61
2021/12/04 08:54:07;;;;;;;8.00;5.72;;;;;;;4.42;100.00;99560.59;6247547;22;20405;-64
2021/12/04 08:56:33;;;;;;;8.35;5.68;;;;;;;4.37;100.00;99546.84;6247834;23;20016;-62
2021/12/04 08:58:59;;;;;;;7.38;5.38;;;;;;;4.48;100.00;99551.94;6247971;22;20004;-62
2021/12/04 09:01:29;;;;;;;8.48;5.85;;;;;;;4.52;100.00;99554.47;6247612;22;20015;-62
2021/12/04 09:03:59;;;;;;;8.48;5.90;;;;;;;4.57;100.00;99556.16;6247997;22;20111;-62
2021/12/04 09:06:25;;;;;;;7.53;5.95;;;;;;;4.64;100.00;99563.84;6247673;22;20018;-61
2021/12/04 09:08:51;;;;;;;9.45;5.97;;;;;;;4.70;100.00;99563.78;6247041;22;20035;-61
2021/12/04 09:11:21;;;;;;;10.95;5.85;;;;;;;4.75;100.00;99576.69;6247641;22;20011;-61
2021/12/04 09:13:47;;;;;;;7.40;5.40;;;;;;;4.75;100.00;99564.59;6247497;22;20015;-62
2021/12/04 09:16:15;;;;;;;8.55;5.97;;;;;;;4.77;100.00;99562.00;6247643;22;20042;-61
2021/12/04 09:18:40;;;;;;;7.75;6.20;;;;;;;4.75;100.00;99551.63;6247505;22;20015;-61
2021/12/04 09:21:06;;;;;;;7.95;6.13;;;;;;;4.80;100.00;99551.59;6247098;22;20295;-62
2021/12/04 09:23:36;;;;;;;8.43;6.43;;;;;;;4.82;100.00;99539.50;6247544;22;20004;-61
2021/12/04 09:26:02;;;;;;;8.75;6.10;;;;;;;4.83;100.00;99536.03;6247410;22;20011;-61
2021/12/04 09:28:42;;;;;;;8.05;6.35;;;;;;;4.83;100.00;99538.63;6247910;22;20345;-61
2021/12/04 09:31:24;;;;;;;7.72;6.07;;;;;;;4.88;100.00;99540.25;6249621;22;20004;-61
2021/12/04 09:36:47;;;;;;;7.95;6.20;;;;;;;4.83;100.00;99536.03;6259981;22;20298;-61
2021/12/04 10:11:23;;;;;;;7.35;6.03;;;;;;;4.78;100.00;99528.28;6249102;22;20022;-61
2021/12/04 10:12:09;;;;;;;8.48;6.35;;;;;;;4.77;100.00;99523.13;6248511;23;20008;-61
2021/12/04 10:15:10;;;;;;;9.35;6.70;;;;;;;4.75;100.00;99520.53;6249243;22;20381;-60
2021/12/04 10:20:23;;;;;;;12.73;7.85;;;;;;;4.80;100.00;99512.72;6258880;23;20414;-61
2021/12/04 10:23:04;;;;;;;11.30;7.10;;;;;;;4.72;100.00;99512.78;6249209;22;20061;-61
2021/12/04 10:33:55;;;;;;;10.90;7.68;;;;;;;4.78;100.00;99480.78;6248927;23;20077;-61
2021/12/04 10:36:30;;;;;;;11.73;8.15;;;;;;;4.75;100.00;99463.53;6249850;22;20241;-61
2021/12/04 10:38:55;;;;;;;12.77;8.02;;;;;;;4.82;100.00;99472.97;6249850;22;20031;-61
2021/12/04 10:41:33;;;;;;;11.63;8.15;;;;;;;4.83;100.00;99471.22;6248617;22;20403;-62
2021/12/04 10:44:21;;;;;;;11.90;7.68;;;;;;;4.91;100.00;99474.56;6248722;22;20039;-60
2021/12/04 10:47:10;;;;;;;16.05;7.80;;;;;;;4.92;100.00;99449.50;6249461;22;20066;-60
2021/12/04 10:50:02;;;;;;;11.93;7.88;;;;;;;4.96;100.00;99451.19;6249129;22;20095;-61
2021/12/04 10:55:30;;;;;;;10.10;7.65;;;;;;;5.01;100.00;99452.00;6259461;22;20079;-61
2021/12/04 10:58:26;;;;;;;12.95;8.10;;;;;;;5.06;100.00;99450.19;6249096;22;20011;-61
2021/12/04 11:06:30;;;;;;;12.48;8.30;;;;;;;5.07;100.00;99416.44;6258731;23;20376;-61
2021/12/04 11:39:57;;;;;;;8.60;6.90;;;;;;;5.45;100.00;99389.09;6248535;22;20075;-61
2021/12/04 11:42:35;;;;;;;8.60;6.93;;;;;;;5.40;100.00;99383.09;6248657;22;20408;-61
2021/12/04 11:45:17;;;;;;;8.52;6.75;;;;;;;5.40;100.00;99393.47;6248300;22;20019;-60
2021/12/04 11:47:49;;;;;;;10.13;7.10;;;;;;;5.40;100.00;99388.28;6247976;22;20398;-61
2021/12/04 11:50:24;;;;;;;9.63;7.00;;;;;;;5.41;100.00;99377.03;6247677;22;20397;-62
2021/12/04 11:52:52;;;;;;;8.23;6.80;;;;;;;5.39;100.00;99371.03;6247575;22;20039;-61
2021/12/04 11:55:20;;;;;;;9.20;7.30;;;;;;;5.40;100.00;99367.53;6248101;22;20302;-61
2021/12/04 11:57:46;;;;;;;9.23;7.18;;;;;;;5.36;100.00;99360.72;6248448;22;20008;-61
2021/12/04 12:00:41;;;;;;;9.48;6.63;;;;;;;5.42;100.00;99381.34;6248451;22;20008;-62
2021/12/04 12:03:12;;;;;;;9.00;7.15;;;;;;;5.37;100.00;99368.44;6222337;22;20004;-61
2021/12/04 12:06:03;;;;;;;9.73;7.28;;;;;;;5.37;100.00;99371.03;6248232;23;20004;-61
2021/12/04 12:08:28;;;;;;;9.15;7.15;;;;;;;5.21;100.00;99339.31;6248067;22;20011;-62
2021/12/04 12:11:01;;;;;;;10.10;7.13;;;;;;;5.29;100.00;99359.94;6248614;23;20000;-62
2021/12/04 12:13:34;;;;;;;10.57;7.28;;;;;;;5.30;100.00;99358.22;6247614;22;20425;-61
2021/12/04 12:16:10;;;;;;;9.18;7.18;;;;;;;5.31;100.00;99359.94;6248207;22;20008;-62
2021/12/04 12:18:50;;;;;;;8.30;6.85;;;;;;;5.30;100.00;99363.41;6248106;22;20061;-62
2021/12/04 12:21:20;;;;;;;9.23;7.38;;;;;;;5.28;100.00;99358.22;6245407;23;20087;-62
2021/12/04 12:32:44;;;;;;;11.40;7.97;;;;;;;5.20;100.00;99354.88;6248040;23;20022;-61
2021/12/04 12:38:30;;;;;;;10.55;8.25;;;;;;;5.19;100.00;99361.00;6246281;23;20031;-62
2021/12/04 12:41:01;;;;;;;10.75;8.88;;;;;;;5.21;100.00;99367.84;6247204;22;20409;-63
2021/12/04 12:43:44;;;;;;;10.70;8.68;;;;;;;5.14;100.00;99367.97;6247883;23;20128;-62
2021/12/04 12:46:10;;;;;;;13.40;9.43;;;;;;;5.10;100.00;99361.97;6248044;22;20350;-64
2021/12/04 12:49:03;;;;;;;14.25;9.75;;;;;;;5.21;100.00;99364.38;6247938;22;20004;-62
2021/12/04 12:51:31;;;;;;;;;;;;;;;5.30;100.00;99373.78;6243481;22;20008;-61
2021/12/04 12:54:00;;;;;;;13.20;9.93;;;;;;;5.10;100.00;99366.28;6247695;22;20257;-60
2021/12/04 12:56:28;;;;;;;16.25;11.52;;;;;;;5.03;100.00;99362.94;6247504;22;20004;-62
2021/12/04 12:58:56;;;;;;;17.70;11.98;;;;;;;5.04;100.00;99362.06;6247858;22;20015;-60
2021/12/04 13:13:38;;;;;;;22.98;15.00;;;;;;;5.12;100.00;99342.06;6247296;23;20082;-61
2021/12/04 13:16:12;;;;;;;22.90;15.35;;;;;;;5.09;100.00;99339.50;6247102;22;20405;-62
2021/12/04 13:18:38;;;;;;;24.08;15.60;;;;;;;5.09;100.00;99347.28;6247286;22;20005;-61
2021/12/04 13:21:09;;;;;;;25.60;15.80;;;;;;;5.10;100.00;99346.41;6246022;22;20038;-62
2021/12/04 13:23:37;;;;;;;22.63;14.43;;;;;;;5.13;100.00;99342.91;6248014;23;20007;-60
2021/12/04 13:26:06;;;;;;;26.05;16.05;;;;;;;5.17;100.00;99348.03;6247643;22;20000;-61
2021/12/04 13:28:36;;;;;;;24.55;15.73;;;;;;;5.16;100.00;99342.88;6247441;22;20004;-60
2021/12/04 13:31:01;;;;;;;26.27;17.30;;;;;;;5.17;100.00;99339.41;6247635;22;20012;-62
2021/12/04 13:33:29;;;;;;;26.27;16.33;;;;;;;5.16;100.00;99333.38;6247846;23;20046;-61
2021/12/04 13:35:54;;;;;;;24.20;15.00;;;;;;;5.18;100.00;99333.34;6246832;22;20027;-62
2021/12/04 13:38:21;;;;;;;21.08;14.50;;;;;;;5.18;100.00;99331.59;6246886;23;20016;-61
2021/12/04 13:40:49;;;;;;;22.83;15.15;;;;;;;5.18;100.00;99338.53;6246653;22;20019;-62
2021/12/04 13:43:15;;;;;;;22.83;14.32;;;;;;;5.15;100.00;99339.44;6246685;22;20019;-62
2021/12/04 13:45:41;;;;;;;20.02;14.05;;;;;;;5.14;100.00;99334.25;6247032;22;20030;-62
2021/12/04 13:48:08;;;;;;;22.13;14.35;;;;;;;5.11;100.00;99331.72;6247741;22;20091;-62
2021/12/04 13:53:07;;;;;;;19.98;13.98;;;;;;;5.10;100.00;99341.22;6246918;22;20417;-60
2021/12/04 13:55:38;;;;;;;21.40;14.10;;;;;;;5.14;100.00;99344.63;6247425;22;20014;-61
2021/12/04 13:58:05;;;;;;;18.83;13.50;;;;;;;5.16;100.00;99341.13;6247587;22;20008;-60
2021/12/04 14:00:30;;;;;;;23.75;14.73;;;;;;;5.15;100.00;99338.56;6247920;22;20000;-61
2021/12/04 14:02:55;;;;;;;21.02;13.98;;;;;;;5.16;100.00;99335.97;6247668;22;20043;-61
2021/12/04 14:05:23;;;;;;;21.63;13.15;;;;;;;5.18;100.00;99329.00;6247714;23;20008;-61
2021/12/04 14:07:52;;;;;;;20.67;14.07;;;;;;;5.19;100.00;99335.91;6247641;22;20016;-60
2021/12/04 14:10:21;;;;;;;20.25;14.35;;;;;;;5.20;100.00;99337.59;6247217;22;20008;-61
2021/12/04 14:12:47;;;;;;;22.40;14.52;;;;;;;5.18;100.00;99334.19;6247375;22;20087;-61
2021/12/04 14:15:15;;;;;;;20.83;13.80;;;;;;;5.20;100.00;99328.97;6247372;22;20345;-59
2021/12/04 14:17:41;;;;;;;21.67;14.40;;;;;;;5.28;100.00;99342.66;6247874;22;20004;-61
2021/12/04 14:20:08;;;;;;;23.50;14.55;;;;;;;5.24;100.00;99343.59;6249161;22;20011;-62
2021/12/04 14:22:43;;;;;;;22.83;14.85;;;;;;;5.28;100.00;99339.22;6248978;22;20001;-62
2021/12/04 14:25:08;;;;;;;23.20;14.82;;;;;;;5.27;100.00;99343.56;6249215;22;20087;-61